Time;durP1;ratioP1;P1;durP2;ratioP2;P2;SDS_P1;SDS_P2;PMS_P1;PMS_P2;Temp;Humidity;BMP_temperature;BMP_pressure;BME280_temperature;BME280_humidity;BME280_pressure;Samples;Min_cycle;Max_cycle;Signal;HPM_P1;HPM_P2
2023/04/10 00:01:35;;;;;;;20.35;12.52;;;;;;;;;;4931482;29;20047;-74
2023/04/10 00:04:02;;;;;;;18.42;13.07;;;;;;;;;;4933689;28;20055;-75
2023/04/10 00:06:28;;;;;;;21.77;13.45;;;;;;;;;;4922978;29;20411;-74
2023/04/10 00:08:54;;;;;;;21.35;13.95;;;;;;;;;;4943098;29;20058;-75
2023/04/10 00:11:21;;;;;;;20.95;13.43;;;;;;;;;;4943823;28;20054;-75
2023/04/10 00:13:47;;;;;;;20.08;12.30;;;;;;;;;;4942571;29;20055;-73
2023/04/10 00:16:13;;;;;;;20.73;13.35;;;;;;;;;;4925920;29;20110;-74
2023/04/10 00:18:40;;;;;;;21.77;13.45;;;;;;;;;;4941705;28;20058;-73
2023/04/10 00:21:07;;;;;;;16.25;10.48;;;;;;;;;;4940770;29;20050;-75
2023/04/10 00:23:33;;;;;;;18.65;12.18;;;;;;;;;;4924519;29;20055;-75
2023/04/10 00:26:00;;;;;;;17.55;11.10;;;;;;;;;;4938513;28;20416;-75
2023/04/10 00:28:26;;;;;;;17.33;11.00;;;;;;;;;;4940536;28;20051;-74
2023/04/10 00:30:52;;;;;;;15.15;9.38;;;;;;;;;;4938603;28;20729;-74
2023/04/10 00:33:19;;;;;;;15.57;9.80;;;;;;;;;;4915441;29;20055;-74
2023/04/10 00:35:45;;;;;;;15.85;10.52;;;;;;;;;;4939808;28;20054;-75
2023/04/10 00:38:12;;;;;;;15.15;9.90;;;;;;;;;;4942896;28;20058;-74
2023/04/10 00:40:39;;;;;;;13.73;9.45;;;;;;;;;;4939726;28;20119;-73
2023/04/10 00:43:05;;;;;;;12.73;8.75;;;;;;;;;;4926049;29;20454;-75
2023/04/10 00:45:31;;;;;;;13.52;9.68;;;;;;;;;;4936643;28;20051;-74
2023/04/10 00:47:58;;;;;;;13.75;9.55;;;;;;;;;;4938801;28;20104;-74
2023/04/10 00:50:24;;;;;;;12.60;9.02;;;;;;;;;;4934843;28;20132;-75
2023/04/10 00:52:51;;;;;;;13.07;9.27;;;;;;;;;;4939181;28;20051;-75
2023/04/10 00:55:17;;;;;;;13.50;9.07;;;;;;;;;;4940730;29;20214;-75
2023/04/10 00:57:45;;;;;;;14.05;9.38;;;;;;;;;;4941768;28;20130;-74
2023/04/10 01:00:13;;;;;;;13.73;9.00;;;;;;;;;;4936492;28;20630;-75
2023/04/10 01:02:39;;;;;;;14.32;8.70;;;;;;;;;;4940500;28;20051;-75
2023/04/10 01:05:06;;;;;;;11.85;8.55;;;;;;;;;;4941869;28;20066;-73
2023/04/10 01:07:39;;;;;;;13.15;8.52;;;;;;;;;;4935634;29;20047;-74
2023/04/10 01:10:19;;;;;;;12.18;8.63;;;;;;;;;;4939485;29;20523;-74
2023/04/10 01:13:04;;;;;;;15.15;8.88;;;;;;;;;;4925221;29;20051;-75
2023/04/10 01:15:37;;;;;;;11.93;8.80;;;;;;;;;;4930101;28;20437;-74
2023/04/10 01:18:11;;;;;;;15.15;7.90;;;;;;;;;;4936593;29;20141;-74
2023/04/10 01:20:40;;;;;;;12.25;7.95;;;;;;;;;;4931643;28;20672;-75
2023/04/10 01:23:25;;;;;;;12.55;7.90;;;;;;;;;;4934279;29;20047;-74
2023/04/10 01:26:00;;;;;;;12.75;8.40;;;;;;;;;;4940679;28;20098;-75
2023/04/10 01:28:29;;;;;;;14.15;7.93;;;;;;;;;;4938862;29;20048;-75
2023/04/10 01:30:59;;;;;;;11.75;7.40;;;;;;;;;;4941881;29;20461;-75
2023/04/10 01:33:28;;;;;;;12.63;8.52;;;;;;;;;;4943006;28;20055;-74
2023/04/10 01:35:55;;;;;;;;;;;;;;;;;;4936551;28;20054;-74
2023/04/10 01:38:22;;;;;;;13.63;8.00;;;;;;;;;;4939229;29;20005;-75
2023/04/10 01:40:50;;;;;;;11.82;7.70;;;;;;;;;;4940476;29;20055;-75
2023/04/10 01:43:18;;;;;;;11.57;7.97;;;;;;;;;;4933830;29;20043;-73
2023/04/10 01:45:45;;;;;;;10.30;7.07;;;;;;;;;;4935202;28;20465;-75
2023/04/10 01:48:12;;;;;;;12.82;8.60;;;;;;;;;;4930037;28;20075;-74
2023/04/10 01:50:38;;;;;;;11.90;8.10;;;;;;;;;;4921559;29;20673;-75
2023/04/10 01:53:05;;;;;;;12.35;8.32;;;;;;;;;;4928918;29;20066;-75
2023/04/10 01:55:32;;;;;;;12.35;7.93;;;;;;;;;;4938366;28;20514;-75
2023/04/10 01:58:00;;;;;;;12.35;8.70;;;;;;;;;;4940457;28;20639;-74
2023/04/10 02:00:26;;;;;;;14.02;9.10;;;;;;;;;;4928901;29;20129;-76
2023/04/10 02:02:53;;;;;;;13.18;8.70;;;;;;;;;;4945093;29;20966;-75
2023/04/10 02:05:21;;;;;;;15.88;10.18;;;;;;;;;;4922604;29;20162;-75
2023/04/10 02:07:53;;;;;;;16.85;10.48;;;;;;;;;;4945097;29;20048;-75
2023/04/10 02:10:23;;;;;;;17.52;10.68;;;;;;;;;;4944684;28;20051;-75
2023/04/10 02:12:52;;;;;;;19.23;10.98;;;;;;;;;;4927669;29;20290;-75
2023/04/10 02:15:20;;;;;;;17.98;10.43;;;;;;;;;;4944620;29;20047;-74
2023/04/10 02:17:47;;;;;;;17.92;10.45;;;;;;;;;;4941692;28;20055;-74
2023/04/10 02:20:15;;;;;;;19.33;11.77;;;;;;;;;;4944204;29;20520;-74
2023/04/10 02:22:44;;;;;;;18.42;10.60;;;;;;;;;;4938584;28;20057;-75
2023/04/10 02:25:10;;;;;;;15.80;10.45;;;;;;;;;;4943524;28;20054;-74
2023/04/10 02:27:37;;;;;;;15.55;10.13;;;;;;;;;;4935356;28;20470;-74
2023/04/10 02:30:04;;;;;;;15.15;9.65;;;;;;;;;;4944490;28;20121;-75
2023/04/10 02:32:34;;;;;;;17.30;10.00;;;;;;;;;;4937297;28;20059;-74
2023/04/10 02:35:01;;;;;;;14.70;9.93;;;;;;;;;;4935292;28;20051;-75
2023/04/10 02:37:28;;;;;;;15.75;9.50;;;;;;;;;;4928404;29;20055;-69
2023/04/10 02:39:54;;;;;;;18.42;9.85;;;;;;;;;;4944000;28;20047;-69
2023/04/10 02:42:20;;;;;;;18.15;10.55;;;;;;;;;;4936079;28;20051;-70
2023/04/10 02:44:47;;;;;;;17.02;9.13;;;;;;;;;;4932336;29;20089;-74
2023/04/10 02:47:14;;;;;;;19.20;10.68;;;;;;;;;;4939802;29;20456;-76
2023/04/10 02:49:41;;;;;;;18.27;10.75;;;;;;;;;;4931036;29;20075;-75
2023/04/10 02:52:07;;;;;;;15.40;10.50;;;;;;;;;;4939647;29;20138;-74
2023/04/10 02:54:34;;;;;;;16.58;10.38;;;;;;;;;;4934803;28;20094;-75
2023/04/10 02:57:00;;;;;;;17.08;10.55;;;;;;;;;;4946641;28;20031;-73
2023/04/10 02:59:27;;;;;;;16.17;10.38;;;;;;;;;;4947542;28;20479;-74
2023/04/10 03:01:53;;;;;;;15.85;9.35;;;;;;;;;;4936411;29;20051;-72
2023/04/10 03:04:20;;;;;;;13.85;9.98;;;;;;;;;;4957201;29;20042;-73
2023/04/10 03:06:46;;;;;;;16.88;10.27;;;;;;;;;;4967022;28;20047;-73
2023/04/10 03:09:13;;;;;;;13.98;9.43;;;;;;;;;;4967201;28;20067;-73
2023/04/10 03:11:39;;;;;;;13.60;9.25;;;;;;;;;;4954037;28;20049;-75
2023/04/10 03:14:08;;;;;;;15.98;9.88;;;;;;;;;;4946401;29;20047;-73
2023/04/10 03:16:34;;;;;;;13.50;9.48;;;;;;;;;;4944849;28;20411;-74
2023/04/10 03:19:01;;;;;;;15.93;9.43;;;;;;;;;;4946261;29;20109;-74
2023/04/10 03:21:27;;;;;;;16.98;9.15;;;;;;;;;;4943557;28;20051;-74
2023/04/10 03:23:54;;;;;;;13.40;9.25;;;;;;;;;;4945953;29;20427;-75
2023/04/10 03:26:22;;;;;;;13.15;9.10;;;;;;;;;;4927088;29;20097;-73
2023/04/10 03:28:49;;;;;;;16.58;9.63;;;;;;;;;;4943410;28;20066;-75
2023/04/10 03:31:15;;;;;;;13.68;9.10;;;;;;;;;;4943892;28;20039;-75
2023/04/10 03:33:41;;;;;;;13.48;8.43;;;;;;;;;;4937298;28;20110;-73
2023/04/10 03:36:08;;;;;;;12.55;8.77;;;;;;;;;;4943540;28;20163;-75
2023/04/10 03:38:34;;;;;;;12.10;8.20;;;;;;;;;;4941243;29;20047;-75
2023/04/10 03:41:01;;;;;;;13.32;9.02;;;;;;;;;;4930859;28;20146;-75
2023/04/10 03:43:28;;;;;;;12.40;8.60;;;;;;;;;;4932667;28;20052;-73
2023/04/10 03:45:54;;;;;;;13.90;8.55;;;;;;;;;;4940818;28;20070;-75
2023/04/10 03:48:21;;;;;;;14.00;8.27;;;;;;;;;;4922630;29;20051;-74
2023/04/10 03:50:47;;;;;;;12.70;8.93;;;;;;;;;;4920128;29;20087;-74
2023/04/10 03:53:14;;;;;;;14.95;8.98;;;;;;;;;;4942116;28;20051;-76
2023/04/10 03:55:41;;;;;;;14.27;9.27;;;;;;;;;;4934840;29;20066;-76
2023/04/10 03:58:07;;;;;;;12.43;8.95;;;;;;;;;;4919669;29;20059;-73
2023/04/10 04:00:33;;;;;;;13.70;9.77;;;;;;;;;;4936220;28;20055;-74
2023/04/10 04:03:01;;;;;;;14.40;9.57;;;;;;;;;;4932036;29;20058;-72
2023/04/10 04:05:29;;;;;;;15.57;10.30;;;;;;;;;;4938165;28;20051;-75
2023/04/10 04:07:56;;;;;;;16.30;9.88;;;;;;;;;;4938307;29;20642;-75
2023/04/10 04:10:23;;;;;;;15.63;10.00;;;;;;;;;;4925352;28;20059;-73
2023/04/10 04:12:49;;;;;;;17.02;11.20;;;;;;;;;;4943293;29;20260;-74
2023/04/10 04:15:15;;;;;;;16.73;10.75;;;;;;;;;;4939666;28;20443;-75
2023/04/10 04:17:42;;;;;;;16.85;10.82;;;;;;;;;;4940224;28;20110;-75
2023/04/10 04:20:08;;;;;;;16.58;11.38;;;;;;;;;;4925840;28;20051;-74
2023/04/10 04:22:35;;;;;;;17.00;10.82;;;;;;;;;;4938350;29;20047;-70
2023/04/10 04:25:01;;;;;;;17.55;11.68;;;;;;;;;;4925257;29;20713;-70
2023/04/10 04:27:28;;;;;;;17.38;10.90;;;;;;;;;;4939840;28;20055;-69
2023/04/10 04:29:54;;;;;;;18.65;11.77;;;;;;;;;;4938274;29;20131;-70
2023/04/10 04:32:21;;;;;;;17.75;11.90;;;;;;;;;;4940265;29;20090;-69
2023/04/10 04:34:47;;;;;;;20.63;13.02;;;;;;;;;;4939333;28;20479;-71
2023/04/10 04:37:13;;;;;;;20.73;14.63;;;;;;;;;;4929746;29;20051;-69
2023/04/10 04:39:40;;;;;;;25.77;17.58;;;;;;;;;;4937548;29;20086;-71
2023/04/10 04:42:06;;;;;;;22.35;14.80;;;;;;;;;;4921216;29;20052;-69
2023/04/10 04:44:32;;;;;;;19.75;13.43;;;;;;;;;;4935644;29;20464;-69
2023/04/10 04:46:59;;;;;;;17.70;12.40;;;;;;;;;;4932228;29;20303;-70
2023/04/10 04:49:25;;;;;;;17.50;11.75;;;;;;;;;;4936102;28;20603;-69
2023/04/10 04:51:52;;;;;;;19.85;12.32;;;;;;;;;;4921520;29;20052;-69
2023/04/10 04:54:18;;;;;;;20.58;12.30;;;;;;;;;;4917900;29;20047;-70
2023/04/10 04:56:44;;;;;;;18.33;11.73;;;;;;;;;;4938808;29;20078;-70
2023/04/10 04:59:11;;;;;;;19.92;12.40;;;;;;;;;;4933982;29;20062;-69
2023/04/10 05:01:37;;;;;;;16.58;11.50;;;;;;;;;;4935568;28;20496;-69
2023/04/10 05:04:04;;;;;;;17.75;11.63;;;;;;;;;;4924545;29;20051;-69
2023/04/10 05:06:30;;;;;;;15.98;11.40;;;;;;;;;;4934671;28;20067;-69
2023/04/10 05:08:57;;;;;;;19.00;11.52;;;;;;;;;;4927264;29;20051;-70
2023/04/10 05:11:23;;;;;;;17.05;10.82;;;;;;;;;;4941775;28;20050;-70
2023/04/10 05:13:50;;;;;;;17.80;10.77;;;;;;;;;;4941824;29;20324;-69
2023/04/10 05:16:16;;;;;;;17.60;10.40;;;;;;;;;;4930593;28;20631;-69
2023/04/10 05:18:43;;;;;;;18.83;11.07;;;;;;;;;;4934302;28;20449;-69
2023/04/10 05:21:09;;;;;;;16.25;9.80;;;;;;;;;;4930970;28;20043;-69
2023/04/10 05:23:36;;;;;;;14.88;10.07;;;;;;;;;;4924484;29;20472;-68
2023/04/10 05:26:02;;;;;;;17.58;10.48;;;;;;;;;;4934991;28;20420;-69
2023/04/10 05:28:28;;;;;;;16.10;10.00;;;;;;;;;;4941540;28;20140;-69
2023/04/10 05:30:55;;;;;;;16.23;9.80;;;;;;;;;;4940599;28;20126;-70
2023/04/10 05:33:21;;;;;;;14.30;9.50;;;;;;;;;;4944266;28;20071;-70
2023/04/10 05:35:48;;;;;;;14.27;10.18;;;;;;;;;;4944244;28;20419;-69
2023/04/10 05:38:14;;;;;;;18.98;10.98;;;;;;;;;;4944538;29;20551;-70
2023/04/10 05:40:43;;;;;;;19.05;10.95;;;;;;;;;;4930247;28;20377;-69
2023/04/10 05:43:09;;;;;;;14.60;9.85;;;;;;;;;;4928452;28;20059;-71
2023/04/10 05:45:36;;;;;;;15.50;9.85;;;;;;;;;;4927645;29;20059;-71
2023/04/10 05:48:02;;;;;;;17.02;11.45;;;;;;;;;;4933422;28;20263;-69
2023/04/10 05:50:29;;;;;;;16.10;10.43;;;;;;;;;;4927986;28;20090;-70
2023/04/10 05:52:56;;;;;;;17.42;10.50;;;;;;;;;;4939476;28;20131;-69
2023/04/10 05:55:22;;;;;;;17.50;10.95;;;;;;;;;;4928823;28;20412;-69
2023/04/10 05:57:50;;;;;;;16.90;11.30;;;;;;;;;;4930147;29;20500;-69
2023/04/10 06:00:17;;;;;;;14.10;9.40;;;;;;;;;;4937713;29;20408;-69
2023/04/10 06:02:43;;;;;;;16.17;10.27;;;;;;;;;;4943024;29;20039;-69
2023/04/10 06:05:10;;;;;;;18.40;10.63;;;;;;;;;;4934758;29;20528;-70
2023/04/10 06:07:36;;;;;;;17.85;10.93;;;;;;;;;;4937675;29;20047;-71
2023/04/10 06:10:03;;;;;;;18.77;10.48;;;;;;;;;;4936762;28;20412;-69
2023/04/10 06:12:29;;;;;;;15.90;10.27;;;;;;;;;;4944861;28;20514;-69
2023/04/10 06:14:56;;;;;;;17.60;11.20;;;;;;;;;;4936690;28;20059;-69
2023/04/10 06:17:24;;;;;;;17.40;10.80;;;;;;;;;;4938834;28;20061;-68
2023/04/10 06:19:51;;;;;;;;;;;;;;;;;;4940946;28;20095;-70
2023/04/10 06:22:17;;;;;;;17.73;10.25;;;;;;;;;;4930479;28;20250;-70
2023/04/10 06:24:43;;;;;;;12.75;8.27;;;;;;;;;;4923593;29;20094;-69
2023/04/10 06:27:11;;;;;;;17.95;10.18;;;;;;;;;;4943887;28;20055;-70
2023/04/10 06:29:37;;;;;;;15.05;10.25;;;;;;;;;;4931246;29;20055;-69
2023/04/10 06:32:04;;;;;;;14.02;9.63;;;;;;;;;;4940003;28;20157;-70
2023/04/10 06:34:30;;;;;;;12.73;8.77;;;;;;;;;;4944588;29;20162;-69
2023/04/10 06:36:56;;;;;;;15.45;10.18;;;;;;;;;;4944005;28;20055;-68
2023/04/10 06:39:23;;;;;;;13.43;8.90;;;;;;;;;;4944176;28;20062;-69
2023/04/10 06:41:50;;;;;;;16.00;10.10;;;;;;;;;;4943082;28;20131;-69
2023/04/10 06:44:16;;;;;;;13.82;9.55;;;;;;;;;;4916395;29;20071;-69
2023/04/10 06:46:43;;;;;;;16.55;10.10;;;;;;;;;;4941130;28;20059;-69
2023/04/10 06:49:09;;;;;;;13.82;9.32;;;;;;;;;;4944681;28;20059;-70
2023/04/10 06:51:36;;;;;;;14.13;9.65;;;;;;;;;;4930599;28;20063;-68
2023/04/10 06:54:02;;;;;;;13.02;8.73;;;;;;;;;;4936072;28;20075;-68
2023/04/10 06:56:29;;;;;;;14.07;9.55;;;;;;;;;;4928843;29;20436;-69
2023/04/10 06:58:56;;;;;;;14.15;8.68;;;;;;;;;;4939879;28;20550;-68
2023/04/10 07:01:22;;;;;;;14.93;10.02;;;;;;;;;;4943288;29;20059;-69
2023/04/10 07:03:52;;;;;;;12.40;8.85;;;;;;;;;;4940969;28;20051;-70
2023/04/10 07:06:19;;;;;;;11.65;8.85;;;;;;;;;;4943852;28;20610;-69
2023/04/10 07:08:47;;;;;;;16.08;9.15;;;;;;;;;;4926456;28;20139;-69
2023/04/10 07:11:13;;;;;;;14.73;9.32;;;;;;;;;;4943460;28;20134;-68
2023/04/10 07:13:40;;;;;;;13.15;8.82;;;;;;;;;;4936675;28;20523;-69
2023/04/10 07:16:09;;;;;;;11.80;7.82;;;;;;;;;;4929857;28;20056;-71
2023/04/10 07:18:37;;;;;;;11.75;8.32;;;;;;;;;;4939345;29;20150;-71
2023/04/10 07:21:08;;;;;;;12.18;8.05;;;;;;;;;;4941582;29;20058;-69
2023/04/10 07:23:35;;;;;;;13.30;8.23;;;;;;;;;;4942095;28;20066;-68
2023/04/10 07:26:01;;;;;;;11.65;7.68;;;;;;;;;;4935534;29;20060;-69
2023/04/10 07:28:28;;;;;;;13.07;9.27;;;;;;;;;;4934163;29;20067;-69
2023/04/10 07:30:54;;;;;;;12.13;8.07;;;;;;;;;;4943277;28;20054;-68
2023/04/10 07:33:20;;;;;;;12.35;7.82;;;;;;;;;;4931703;28;20142;-69
2023/04/10 07:35:47;;;;;;;10.95;7.43;;;;;;;;;;4941627;28;20106;-68
2023/04/10 07:38:13;;;;;;;10.68;7.20;;;;;;;;;;4945394;28;20062;-70
2023/04/10 07:40:40;;;;;;;15.15;7.95;;;;;;;;;;4940187;28;20191;-68
2023/04/10 07:43:06;;;;;;;17.77;7.03;;;;;;;;;;4947343;29;20055;-70
2023/04/10 07:45:32;;;;;;;12.63;7.97;;;;;;;;;;4948929;28;20056;-69
2023/04/10 07:47:59;;;;;;;13.05;8.05;;;;;;;;;;4943965;29;20404;-68
2023/04/10 07:50:25;;;;;;;13.35;7.80;;;;;;;;;;4927647;29;20055;-70
2023/04/10 07:52:52;;;;;;;15.75;8.10;;;;;;;;;;4942151;28;20078;-70
2023/04/10 07:55:18;;;;;;;15.05;8.50;;;;;;;;;;4943373;28;20071;-70
2023/04/10 07:57:45;;;;;;;12.50;8.02;;;;;;;;;;4942135;28;20177;-69
2023/04/10 08:00:12;;;;;;;112.47;14.13;;;;;;;;;;4943249;28;20098;-69
2023/04/10 08:02:39;;;;;;;13.65;7.65;;;;;;;;;;4937433;28;20532;-70
2023/04/10 08:05:06;;;;;;;12.13;7.40;;;;;;;;;;4937171;28;20735;-70
2023/04/10 08:07:35;;;;;;;11.57;8.00;;;;;;;;;;4939359;29;20103;-70
2023/04/10 08:10:02;;;;;;;11.57;7.07;;;;;;;;;;4917619;29;20048;-70
2023/04/10 08:12:28;;;;;;;9.05;6.63;;;;;;;;;;4934230;28;20062;-71
2023/04/10 08:14:56;;;;;;;12.13;7.93;;;;;;;;;;4939422;28;20047;-69
2023/04/10 08:17:22;;;;;;;16.70;7.63;;;;;;;;;;4924798;29;20043;-70
2023/04/10 08:19:49;;;;;;;12.25;7.18;;;;;;;;;;4939776;28;20057;-69
2023/04/10 08:22:15;;;;;;;11.65;7.53;;;;;;;;;;4930751;28;20055;-69
2023/04/10 08:24:41;;;;;;;10.32;7.00;;;;;;;;;;4930606;28;20057;-69
2023/04/10 08:27:08;;;;;;;11.15;7.50;;;;;;;;;;4934417;28;20202;-69
2023/04/10 08:29:34;;;;;;;10.57;6.75;;;;;;;;;;4941915;28;20265;-69
2023/04/10 08:32:01;;;;;;;10.57;7.65;;;;;;;;;;4938917;28;20055;-69
2023/04/10 08:34:27;;;;;;;11.32;7.15;;;;;;;;;;4924866;29;20055;-70
2023/04/10 08:36:54;;;;;;;10.20;6.78;;;;;;;;;;4934007;29;20503;-69
2023/04/10 08:39:20;;;;;;;13.90;7.38;;;;;;;;;;4931668;28;20063;-72
2023/04/10 08:41:46;;;;;;;11.55;7.60;;;;;;;;;;4934632;28;20063;-68
2023/04/10 08:44:13;;;;;;;13.27;7.20;;;;;;;;;;4941375;28;20055;-69
2023/04/10 08:46:43;;;;;;;12.20;7.70;;;;;;;;;;4941035;28;20424;-69
2023/04/10 08:49:15;;;;;;;10.23;6.78;;;;;;;;;;4924891;29;20047;-69
2023/04/10 08:51:45;;;;;;;13.85;8.30;;;;;;;;;;4941142;29;20058;-69
2023/04/10 08:54:18;;;;;;;12.25;7.40;;;;;;;;;;4935247;29;20055;-69
2023/04/10 08:56:48;;;;;;;10.15;6.82;;;;;;;;;;4924170;28;20051;-71
2023/04/10 08:59:15;;;;;;;9.77;7.20;;;;;;;;;;4940491;28;20055;-70
2023/04/10 09:01:41;;;;;;;10.60;7.18;;;;;;;;;;4929740;28;20062;-70
2023/04/10 09:04:10;;;;;;;10.45;6.68;;;;;;;;;;4941216;28;20051;-71
2023/04/10 09:06:36;;;;;;;;;;;;;;;;;;4923838;28;20061;-70
2023/04/10 09:09:04;;;;;;;10.45;7.38;;;;;;;;;;4936566;28;19946;-70
2023/04/10 09:11:49;;;;;;;10.25;6.88;;;;;;;;;;4941925;28;20059;-69
2023/04/10 09:14:23;;;;;;;10.40;7.00;;;;;;;;;;4925405;29;20115;-71
2023/04/10 09:16:50;;;;;;;10.25;6.85;;;;;;;;;;4939588;29;20131;-70
2023/04/10 09:19:29;;;;;;;8.80;6.93;;;;;;;;;;4938893;28;20078;-70
2023/04/10 09:21:56;;;;;;;10.35;6.60;;;;;;;;;;4933795;28;21020;-70
2023/04/10 09:24:23;;;;;;;10.40;6.80;;;;;;;;;;4934939;29;20532;-72
2023/04/10 09:26:50;;;;;;;9.10;5.68;;;;;;;;;;4932100;28;20055;-69
2023/04/10 09:29:17;;;;;;;10.85;7.28;;;;;;;;;;4939182;28;20843;-70
2023/04/10 09:31:43;;;;;;;10.38;6.70;;;;;;;;;;4926933;29;20480;-70
2023/04/10 09:34:23;;;;;;;9.88;7.13;;;;;;;;;;4939849;28;20051;-69
2023/04/10 09:36:54;;;;;;;9.77;6.25;;;;;;;;;;4937610;28;20047;-70
2023/04/10 09:39:20;;;;;;;12.32;6.72;;;;;;;;;;4940418;28;20051;-70
2023/04/10 09:41:48;;;;;;;9.02;6.32;;;;;;;;;;4928168;28;20055;-69
2023/04/10 09:44:16;;;;;;;9.55;6.05;;;;;;;;;;4940073;28;20047;-67
2023/04/10 09:46:42;;;;;;;9.43;6.75;;;;;;;;;;4943138;28;20118;-68
2023/04/10 09:49:08;;;;;;;9.45;6.55;;;;;;;;;;4936817;28;20493;-69
2023/04/10 09:51:35;;;;;;;8.48;5.90;;;;;;;;;;4937669;28;20155;-71
2023/04/10 09:54:02;;;;;;;11.82;7.10;;;;;;;;;;4940682;28;20456;-68
2023/04/10 09:56:29;;;;;;;8.48;6.45;;;;;;;;;;4941416;28;20047;-69
2023/04/10 09:58:58;;;;;;;9.07;6.50;;;;;;;;;;4928272;29;20047;-69
2023/04/10 10:01:33;;;;;;;12.55;6.13;;;;;;;;;;4927712;29;20370;-70
2023/04/10 10:04:01;;;;;;;11.15;7.43;;;;;;;;;;4935658;29;20649;-70
2023/04/10 10:06:28;;;;;;;8.10;6.03;;;;;;;;;;4932801;28;20054;-69
2023/04/10 10:08:55;;;;;;;7.60;5.90;;;;;;;;;;4942047;28;20677;-68
2023/04/10 10:11:23;;;;;;;8.38;5.57;;;;;;;;;;4940349;28;20059;-70
2023/04/10 10:13:55;;;;;;;9.40;5.77;;;;;;;;;;4932743;29;20175;-70
2023/04/10 10:16:22;;;;;;;8.05;5.80;;;;;;;;;;4922612;29;20055;-69
2023/04/10 10:19:01;;;;;;;7.90;5.50;;;;;;;;;;4936888;28;20110;-68
2023/04/10 10:21:28;;;;;;;10.57;5.72;;;;;;;;;;4935190;28;20055;-70
2023/04/10 10:23:57;;;;;;;6.82;5.10;;;;;;;;;;4930259;29;20151;-71
2023/04/10 10:26:24;;;;;;;7.15;4.82;;;;;;;;;;4941177;28;20055;-70
2023/04/10 10:28:51;;;;;;;8.38;5.18;;;;;;;;;;4941173;29;20071;-70
2023/04/10 10:31:19;;;;;;;17.15;5.43;;;;;;;;;;4937316;28;20045;-70
2023/04/10 10:33:46;;;;;;;8.18;5.90;;;;;;;;;;4941525;28;20102;-70
2023/04/10 10:36:14;;;;;;;7.15;5.35;;;;;;;;;;4943072;28;20047;-69
2023/04/10 10:38:43;;;;;;;8.83;5.23;;;;;;;;;;4936520;29;20131;-70
2023/04/10 10:41:12;;;;;;;8.02;4.88;;;;;;;;;;4924990;29;20579;-70
2023/04/10 10:43:54;;;;;;;7.47;5.10;;;;;;;;;;4939116;28;20074;-70
2023/04/10 10:46:47;;;;;;;9.32;5.65;;;;;;;;;;4937484;28;20463;-70
2023/04/10 10:49:13;;;;;;;7.55;5.35;;;;;;;;;;4919571;28;20538;-70
2023/04/10 10:51:47;;;;;;;6.88;5.43;;;;;;;;;;4941168;28;20048;-70
2023/04/10 10:54:26;;;;;;;8.77;5.25;;;;;;;;;;4927090;28;20138;-70
2023/04/10 10:56:52;;;;;;;8.85;5.40;;;;;;;;;;4940506;28;20375;-70
2023/04/10 10:59:39;;;;;;;8.65;5.35;;;;;;;;;;4941492;29;20134;-70
2023/04/10 11:02:15;;;;;;;6.75;4.63;;;;;;;;;;4942192;28;20266;-70
2023/04/10 11:04:46;;;;;;;8.10;5.78;;;;;;;;;;4941511;28;20051;-70
2023/04/10 11:07:13;;;;;;;7.50;5.45;;;;;;;;;;4942003;29;20166;-69
2023/04/10 11:09:46;;;;;;;6.38;4.43;;;;;;;;;;4939523;28;20082;-70
2023/04/10 11:12:13;;;;;;;7.53;5.43;;;;;;;;;;4931163;28;20047;-69
2023/04/10 11:14:43;;;;;;;7.70;5.25;;;;;;;;;;4924091;28;20063;-71
2023/04/10 11:17:10;;;;;;;7.65;5.40;;;;;;;;;;4941084;28;20051;-70
2023/04/10 11:19:56;;;;;;;6.47;4.90;;;;;;;;;;4931408;29;20062;-72
2023/04/10 11:22:22;;;;;;;7.72;5.22;;;;;;;;;;4938388;28;20055;-69
2023/04/10 11:24:56;;;;;;;7.20;5.10;;;;;;;;;;4931357;28;20055;-69
2023/04/10 11:27:39;;;;;;;7.97;5.13;;;;;;;;;;4935913;29;20083;-70
2023/04/10 11:30:24;;;;;;;7.32;5.28;;;;;;;;;;4938646;28;20070;-73
2023/04/10 11:32:50;;;;;;;7.40;5.05;;;;;;;;;;4936654;28;20099;-74
2023/04/10 11:35:18;;;;;;;9.93;5.35;;;;;;;;;;4937848;28;20489;-74
2023/04/10 11:37:44;;;;;;;6.38;4.75;;;;;;;;;;4937929;28;20058;-74
2023/04/10 11:40:11;;;;;;;8.00;4.63;;;;;;;;;;4933261;28;20143;-75
2023/04/10 11:42:38;;;;;;;5.55;4.10;;;;;;;;;;4935447;29;20544;-75
2023/04/10 11:45:24;;;;;;;7.70;4.63;;;;;;;;;;4936804;28;20579;-75
2023/04/10 11:47:54;;;;;;;6.43;4.07;;;;;;;;;;4934354;29;20427;-75
2023/04/10 11:50:20;;;;;;;6.45;4.38;;;;;;;;;;4937473;28;20083;-74
2023/04/10 11:52:50;;;;;;;6.75;4.20;;;;;;;;;;4937527;28;20053;-74
2023/04/10 11:55:16;;;;;;;7.90;4.80;;;;;;;;;;4932904;28;20134;-74
2023/04/10 11:57:44;;;;;;;8.68;4.38;;;;;;;;;;4937412;28;20707;-74
2023/04/10 12:00:10;;;;;;;7.00;5.15;;;;;;;;;;4932582;28;20086;-74
2023/04/10 12:02:50;;;;;;;6.32;4.70;;;;;;;;;;4940782;29;20543;-74
2023/04/10 12:05:17;;;;;;;7.80;4.40;;;;;;;;;;4927331;28;20055;-74
2023/04/10 12:07:44;;;;;;;5.60;3.97;;;;;;;;;;4930939;28;20055;-73
2023/04/10 12:10:11;;;;;;;6.18;3.95;;;;;;;;;;4932095;28;20291;-74
2023/04/10 12:12:37;;;;;;;5.57;4.45;;;;;;;;;;4934791;28;20142;-74
2023/04/10 12:15:23;;;;;;;9.32;4.30;;;;;;;;;;4923660;29;20051;-73
2023/04/10 12:17:50;;;;;;;7.90;4.30;;;;;;;;;;4930366;28;20058;-75
2023/04/10 12:20:16;;;;;;;6.72;4.03;;;;;;;;;;4941121;28;20130;-74
2023/04/10 12:22:44;;;;;;;5.50;3.85;;;;;;;;;;4936633;28;20059;-75
2023/04/10 12:25:11;;;;;;;5.97;3.72;;;;;;;;;;4914638;28;20438;-75
2023/04/10 12:27:37;;;;;;;7.05;3.97;;;;;;;;;;4930288;29;20167;-74
2023/04/10 12:30:06;;;;;;;6.38;3.90;;;;;;;;;;4939415;28;20047;-74
2023/04/10 12:32:33;;;;;;;6.70;3.60;;;;;;;;;;4935351;29;20557;-75
2023/04/10 12:35:02;;;;;;;5.15;3.95;;;;;;;;;;4930028;28;20582;-73
2023/04/10 12:37:48;;;;;;;6.35;3.53;;;;;;;;;;4923156;29;20051;-75
2023/04/10 12:40:14;;;;;;;4.32;3.20;;;;;;;;;;4935803;28;20052;-74
2023/04/10 12:42:41;;;;;;;5.28;3.45;;;;;;;;;;4939410;28;20086;-75
2023/04/10 12:45:08;;;;;;;6.93;3.47;;;;;;;;;;4937812;28;20047;-75
2023/04/10 12:47:42;;;;;;;5.85;3.20;;;;;;;;;;4922864;29;20138;-74
2023/04/10 12:50:10;;;;;;;4.82;3.60;;;;;;;;;;4935914;28;20047;-75
2023/04/10 12:52:38;;;;;;;7.25;3.08;;;;;;;;;;4932175;29;20288;-72
2023/04/10 12:55:22;;;;;;;5.53;3.45;;;;;;;;;;4927556;28;20051;-72
2023/04/10 12:57:50;;;;;;;5.22;3.38;;;;;;;;;;4935031;28;20134;-74
2023/04/10 13:00:17;;;;;;;5.13;3.05;;;;;;;;;;4940096;28;20114;-74
2023/04/10 13:02:44;;;;;;;9.18;3.58;;;;;;;;;;4928842;28;20162;-75
2023/04/10 13:05:11;;;;;;;4.88;3.17;;;;;;;;;;4936354;28;20133;-73
2023/04/10 13:07:38;;;;;;;6.32;3.70;;;;;;;;;;4940062;28;20051;-75
2023/04/10 13:10:06;;;;;;;7.00;3.97;;;;;;;;;;4937113;28;20460;-74
2023/04/10 13:12:33;;;;;;;7.70;3.70;;;;;;;;;;4940105;28;20047;-73
2023/04/10 13:15:00;;;;;;;8.02;3.88;;;;;;;;;;4938087;28;20051;-72
2023/04/10 13:17:27;;;;;;;4.93;3.65;;;;;;;;;;4938136;28;20480;-74
2023/04/10 13:19:53;;;;;;;6.00;3.60;;;;;;;;;;4919777;28;20324;-73
2023/04/10 13:22:20;;;;;;;5.75;3.58;;;;;;;;;;4937113;28;20465;-73
2023/04/10 13:24:46;;;;;;;8.48;3.17;;;;;;;;;;4937638;28;20082;-74
2023/04/10 13:27:13;;;;;;;4.55;3.10;;;;;;;;;;4938725;29;20564;-74
2023/04/10 13:29:39;;;;;;;6.15;3.53;;;;;;;;;;4934177;28;20461;-73
2023/04/10 13:32:07;;;;;;;5.95;4.00;;;;;;;;;;4921861;29;20051;-72
2023/04/10 13:34:34;;;;;;;6.18;3.17;;;;;;;;;;4939992;29;20325;-73
2023/04/10 13:37:00;;;;;;;5.28;3.40;;;;;;;;;;4931527;28;20059;-74
2023/04/10 13:39:27;;;;;;;5.55;3.33;;;;;;;;;;4934395;29;20054;-73
2023/04/10 13:41:54;;;;;;;5.10;3.63;;;;;;;;;;4930183;28;20678;-73
2023/04/10 13:44:21;;;;;;;5.90;3.70;;;;;;;;;;4930546;29;20058;-75
2023/04/10 13:46:47;;;;;;;5.25;3.67;;;;;;;;;;4932730;28;20063;-73
2023/04/10 13:49:18;;;;;;;5.50;3.58;;;;;;;;;;4937384;28;20074;-74
2023/04/10 13:51:45;;;;;;;5.70;3.88;;;;;;;;;;4937110;28;20047;-73
2023/04/10 13:54:12;;;;;;;4.10;3.22;;;;;;;;;;4940272;29;20437;-74
2023/04/10 13:56:39;;;;;;;5.78;3.95;;;;;;;;;;4941489;28;20051;-74
2023/04/10 13:59:05;;;;;;;5.72;3.28;;;;;;;;;;4940378;28;20140;-75
2023/04/10 14:01:32;;;;;;;6.15;3.80;;;;;;;;;;4940939;28;20142;-72
2023/04/10 14:03:58;;;;;;;4.50;3.30;;;;;;;;;;4936718;29;20539;-75
2023/04/10 14:06:25;;;;;;;4.65;3.53;;;;;;;;;;4940877;28;20130;-73
2023/04/10 14:08:52;;;;;;;5.40;3.58;;;;;;;;;;4923976;29;20058;-72
2023/04/10 14:11:19;;;;;;;4.70;3.30;;;;;;;;;;4937761;28;20154;-73
2023/04/10 14:13:46;;;;;;;4.35;3.30;;;;;;;;;;4930220;28;20143;-74
2023/04/10 14:16:13;;;;;;;6.72;3.20;;;;;;;;;;4937337;28;20055;-73
2023/04/10 14:18:39;;;;;;;5.25;3.10;;;;;;;;;;4937732;28;20047;-75
2023/04/10 14:21:06;;;;;;;4.10;3.00;;;;;;;;;;4938665;28;20077;-72
2023/04/10 14:23:32;;;;;;;3.72;2.92;;;;;;;;;;4938867;29;20138;-73
2023/04/10 14:25:59;;;;;;;4.97;3.33;;;;;;;;;;4939507;28;20086;-74
2023/04/10 14:28:25;;;;;;;5.85;2.80;;;;;;;;;;4930964;28;20049;-73
2023/04/10 14:30:52;;;;;;;6.53;3.17;;;;;;;;;;4940958;28;20043;-74
2023/04/10 14:33:18;;;;;;;4.72;2.92;;;;;;;;;;4931042;28;20047;-74
2023/04/10 14:35:45;;;;;;;3.80;2.85;;;;;;;;;;4931841;28;20047;-72